createdAt,value
2022-10-13T00:01:09.296Z,100502.45
2022-10-13T00:04:12.342Z,100502.01
2022-10-13T00:07:15.113Z,100500.75
2022-10-13T00:10:17.866Z,100500.09
2022-10-13T00:13:21.040Z,100495.18
2022-10-13T00:16:24.645Z,100495.61
2022-10-13T00:19:27.964Z,100488.71
2022-10-13T00:22:33.049Z,100489.73
2022-10-13T00:25:35.837Z,100485.86
2022-10-13T00:28:39.917Z,100486.28
2022-10-13T00:31:42.684Z,100481.05
2022-10-13T00:34:45.724Z,100479.00
2022-10-13T00:37:48.774Z,100482.58
2022-10-13T00:40:55.233Z,100481.89
2022-10-13T00:44:07.385Z,100482.98
2022-10-13T00:47:10.429Z,100482.23
2022-10-13T00:50:36.846Z,100478.25
2022-10-13T00:53:40.720Z,100473.60
2022-10-13T00:56:45.419Z,100467.44
2022-10-13T00:59:49.076Z,100471.39
2022-10-13T01:02:52.759Z,100470.63
2022-10-13T01:05:58.610Z,100467.23
2022-10-13T01:09:01.580Z,100464.75
2022-10-13T01:12:28.904Z,100463.52
2022-10-13T01:15:55.574Z,100457.09
2022-10-13T01:19:43.579Z,100452.90
2022-10-13T01:23:08.178Z,100456.12
2022-10-13T01:26:32.953Z,100455.66
2022-10-13T01:29:45.152Z,100457.95
2022-10-13T01:33:13.220Z,100454.44
2022-10-13T01:36:26.823Z,100450.81
2022-10-13T01:39:41.989Z,100445.95
2022-10-13T01:43:08.054Z,100442.97
2022-10-13T01:46:17.844Z,100440.98
2022-10-13T01:49:24.825Z,100439.29
2022-10-13T01:52:34.691Z,100438.77
2022-10-13T01:55:37.566Z,100434.39
2022-10-13T01:58:40.798Z,100429.27
2022-10-13T02:02:21.852Z,100420.80
2022-10-13T02:05:31.086Z,100419.41
2022-10-13T02:08:44.823Z,100412.85
2022-10-13T02:11:55.543Z,100415.85
2022-10-13T02:15:01.427Z,100418.00
2022-10-13T02:18:05.115Z,100414.62
2022-10-13T02:21:08.084Z,100411.91
2022-10-13T02:24:11.470Z,100406.33
2022-10-13T02:27:14.379Z,100408.83
2022-10-13T02:30:27.084Z,100409.61
2022-10-13T02:33:29.883Z,100407.15
2022-10-13T02:36:33.590Z,100407.87
2022-10-13T02:39:36.320Z,100410.98
2022-10-13T02:42:39.393Z,100404.66
2022-10-13T02:45:42.361Z,100401.67
2022-10-13T02:48:45.150Z,100398.33
2022-10-13T02:51:47.885Z,100398.27
2022-10-13T02:54:50.646Z,100399.77
2022-10-13T02:57:54.709Z,100397.91
2022-10-13T03:01:09.077Z,100397.36
2022-10-13T03:04:12.485Z,100389.98
2022-10-13T03:07:15.839Z,100391.86
2022-10-13T03:10:18.628Z,100394.47
2022-10-13T03:13:21.496Z,100391.02
2022-10-13T03:16:24.264Z,100396.02
2022-10-13T03:19:27.044Z,100392.40
2022-10-13T03:22:32.569Z,100392.85
2022-10-13T03:25:35.566Z,100396.80
2022-10-13T03:28:38.374Z,100395.92
2022-10-13T03:31:41.892Z,100388.58
2022-10-13T03:34:44.795Z,100390.29
2022-10-13T03:37:47.556Z,100392.24
2022-10-13T03:40:50.459Z,100389.38
2022-10-13T03:43:54.401Z,100392.92
2022-10-13T03:46:57.088Z,100390.96
2022-10-13T03:49:59.814Z,100385.94
2022-10-13T03:53:02.500Z,100390.70
2022-10-13T03:56:06.853Z,100383.61
2022-10-13T03:59:12.455Z,100384.77
2022-10-13T04:02:15.244Z,100387.75
2022-10-13T04:05:18.121Z,100382.58
2022-10-13T04:08:20.879Z,100378.19
2022-10-13T04:11:24.211Z,100377.08
2022-10-13T04:14:27.092Z,100374.02
2022-10-13T04:17:29.939Z,100372.33
2022-10-13T04:20:37.216Z,100365.38
2022-10-13T04:23:40.074Z,100362.80
2022-10-13T04:26:42.912Z,100360.99
2022-10-13T04:29:45.837Z,100354.23
2022-10-13T04:32:48.766Z,100346.67
2022-10-13T04:35:52.072Z,100343.92
2022-10-13T04:38:55.199Z,100346.23
2022-10-13T04:42:23.371Z,100350.30
2022-10-13T04:45:26.822Z,100346.78
2022-10-13T04:48:29.834Z,100344.91
2022-10-13T04:51:33.197Z,100344.23
2022-10-13T04:54:36.274Z,100341.54
2022-10-13T04:57:39.105Z,100338.81
2022-10-13T05:00:46.660Z,100338.15
2022-10-13T05:03:54.477Z,100335.42
2022-10-13T05:07:17.143Z,100333.60
2022-10-13T05:10:20.363Z,100331.08
2022-10-13T05:13:24.757Z,100331.60
2022-10-13T05:16:29.290Z,100329.85
2022-10-13T05:19:33.132Z,100329.48
2022-10-13T05:22:35.930Z,100331.03
2022-10-13T05:26:17.914Z,100327.45
2022-10-13T05:29:20.665Z,100328.17
2022-10-13T05:32:24.281Z,100324.61
2022-10-13T05:35:27.850Z,100323.45
2022-10-13T05:38:36.767Z,100318.52
2022-10-13T05:41:39.635Z,100318.75
2022-10-13T05:44:42.540Z,100323.33
2022-10-13T05:47:45.337Z,100322.40
2022-10-13T05:50:48.195Z,100323.79
2022-10-13T05:54:08.791Z,100322.88
2022-10-13T05:57:16.583Z,100329.42
2022-10-13T06:00:19.959Z,100325.35
2022-10-13T06:03:23.592Z,100324.33
2022-10-13T06:06:30.572Z,100324.77
2022-10-13T06:09:38.027Z,100324.76
2022-10-13T06:12:41.020Z,100323.73
2022-10-13T06:15:43.813Z,100323.64
2022-10-13T06:18:46.960Z,100316.25
2022-10-13T06:21:49.841Z,100321.41
2022-10-13T06:24:52.679Z,100320.69
2022-10-13T06:28:00.262Z,100317.73
2022-10-13T06:31:07.978Z,100315.05
2022-10-13T06:34:11.138Z,100312.63
2022-10-13T06:37:13.916Z,100303.43
2022-10-13T06:40:17.225Z,100307.88
2022-10-13T06:43:20.270Z,100308.80
2022-10-13T06:46:23.105Z,100301.05
2022-10-13T06:49:25.882Z,100303.72
2022-10-13T06:52:28.703Z,100308.07
2022-10-13T06:55:31.626Z,100303.18
2022-10-13T06:58:35.722Z,100296.40
2022-10-13T07:01:41.673Z,100292.21
2022-10-13T07:04:44.610Z,100297.72
2022-10-13T07:07:47.565Z,100304.02
2022-10-13T07:10:51.443Z,100308.48
2022-10-13T07:13:54.701Z,100305.77
2022-10-13T07:16:57.509Z,100300.31
2022-10-13T07:20:03.700Z,100297.94
2022-10-13T07:23:10.012Z,100299.32
2022-10-13T07:26:15.021Z,100294.92
2022-10-13T07:29:17.945Z,100295.35
2022-10-13T07:32:20.918Z,100290.06
2022-10-13T07:35:30.274Z,100291.67
2022-10-13T07:38:33.700Z,100288.57
2022-10-13T07:41:37.305Z,100291.63
2022-10-13T07:44:40.324Z,100288.33
2022-10-13T07:47:43.080Z,100292.70
2022-10-13T07:50:45.828Z,100295.52
2022-10-13T07:53:49.323Z,100291.43
2022-10-13T07:56:52.920Z,100287.55
2022-10-13T07:59:55.908Z,100290.65
2022-10-13T08:02:58.998Z,100284.81
2022-10-13T08:06:04.294Z,100284.56
2022-10-13T08:09:07.180Z,100280.46
2022-10-13T08:12:10.481Z,100274.87
2022-10-13T08:15:13.577Z,100271.33
2022-10-13T08:18:16.592Z,100266.53
2022-10-13T08:21:53.389Z,100265.89
2022-10-13T08:24:44.511Z,100267.01
2022-10-13T08:27:51.673Z,100269.77
2022-10-13T08:30:59.592Z,100272.24
2022-10-13T08:34:02.497Z,100269.95
2022-10-13T08:37:05.778Z,100276.16
2022-10-13T08:40:14.795Z,100272.30
2022-10-13T08:43:21.648Z,100276.64
2022-10-13T08:46:38.749Z,100278.70
2022-10-13T08:49:43.539Z,100276.11
2022-10-13T08:52:52.800Z,100272.86
2022-10-13T08:56:15.901Z,100272.23
2022-10-13T08:59:19.378Z,100271.54
2022-10-13T09:02:27.326Z,100273.77
2022-10-13T09:05:42.128Z,100269.44
2022-10-13T09:08:56.967Z,100270.47
2022-10-13T09:12:00.137Z,100268.25
2022-10-13T09:15:10.151Z,100264.89
2022-10-13T09:18:14.378Z,100262.23
2022-10-13T09:21:22.811Z,100260.77
2022-10-13T09:24:27.443Z,100260.45
2022-10-13T09:28:01.136Z,100259.11
2022-10-13T09:31:15.709Z,100254.70
2022-10-13T09:34:19.082Z,100256.83
2022-10-13T09:37:24.586Z,100253.38
2022-10-13T09:40:31.455Z,100252.99
2022-10-13T09:43:37.875Z,100251.52
2022-10-13T09:47:04.408Z,100246.27
2022-10-13T09:50:20.171Z,100246.40
2022-10-13T09:53:33.759Z,100241.05
2022-10-13T09:56:49.077Z,100242.50
2022-10-13T10:00:22.882Z,100246.63
2022-10-13T10:03:35.786Z,100244.93
2022-10-13T10:06:40.533Z,100240.42
2022-10-13T10:10:08.258Z,100237.77
2022-10-13T10:13:13.337Z,100234.15
2022-10-13T10:16:21.734Z,100233.91
2022-10-13T10:20:00.934Z,100235.54
2022-10-13T10:23:28.084Z,100233.73
2022-10-13T10:26:50.185Z,100226.91
2022-10-13T10:30:15.727Z,100221.83
2022-10-13T10:33:35.499Z,100216.54
2022-10-13T10:36:48.816Z,100215.40
2022-10-13T10:39:59.998Z,100208.94
2022-10-13T10:44:02.381Z,100205.98
2022-10-13T10:47:26.516Z,100201.23
2022-10-13T10:50:31.711Z,100202.42
2022-10-13T10:53:54.742Z,100192.53
2022-10-13T10:57:16.167Z,100192.78
2022-10-13T11:00:22.468Z,100190.89
2022-10-13T11:03:42.776Z,100186.70
2022-10-13T11:06:45.591Z,100182.99
2022-10-13T11:09:48.422Z,100182.67
2022-10-13T11:12:51.418Z,100182.55
2022-10-13T11:15:55.816Z,100176.91
2022-10-13T11:19:05.916Z,100171.42
2022-10-13T11:22:21.149Z,100164.29
2022-10-13T11:25:45.080Z,100159.41
2022-10-13T11:28:48.382Z,100155.14
2022-10-13T11:31:54.483Z,100150.06
2022-10-13T11:35:21.189Z,100147.33
2022-10-13T11:38:36.186Z,100142.51
2022-10-13T11:41:55.126Z,100137.44
2022-10-13T11:45:00.816Z,100134.70
2022-10-13T11:48:36.693Z,100131.20
2022-10-13T11:52:06.079Z,100127.27
2022-10-13T11:55:18.743Z,100126.89
2022-10-13T11:58:27.612Z,100126.34
2022-10-13T12:01:30.521Z,100126.95
2022-10-13T12:04:33.591Z,100124.79
2022-10-13T12:07:40.749Z,100118.34
2022-10-13T12:10:43.912Z,100119.95
2022-10-13T12:13:47.456Z,100119.13
2022-10-13T12:16:57.805Z,100113.70
2022-10-13T12:20:16.776Z,100110.08
2022-10-13T12:23:19.771Z,100106.38
2022-10-13T12:26:25.420Z,100100.21
2022-10-13T12:29:34.882Z,100095.02
2022-10-13T12:32:50.592Z,100093.85
2022-10-13T12:35:53.524Z,100091.22
2022-10-13T12:39:00.938Z,100086.40
2022-10-13T12:42:07.005Z,100086.33
2022-10-13T12:45:18.849Z,100085.11
2022-10-13T12:48:35.411Z,100080.80
2022-10-13T12:51:39.614Z,100078.02
2022-10-13T12:54:55.059Z,100076.88
2022-10-13T12:57:58.181Z,100069.81
2022-10-13T13:01:08.539Z,100066.73
2022-10-13T13:04:19.312Z,100062.80
2022-10-13T13:07:33.692Z,100056.11
2022-10-13T13:10:36.702Z,100055.44
2022-10-13T13:13:39.716Z,100053.66
2022-10-13T13:17:01.445Z,100051.69
2022-10-13T13:20:19.981Z,100048.11
2022-10-13T13:23:23.706Z,100041.10
2022-10-13T13:26:26.644Z,100049.67
2022-10-13T13:29:29.453Z,100047.73
2022-10-13T13:32:32.277Z,100048.41
2022-10-13T13:35:35.045Z,100046.06
2022-10-13T13:38:38.163Z,100047.09
2022-10-13T13:41:41.103Z,100040.65
2022-10-13T13:44:44.126Z,100038.22
2022-10-13T13:47:47.345Z,100039.31
2022-10-13T13:50:50.388Z,100038.02
2022-10-13T13:53:53.230Z,100039.22
2022-10-13T13:56:58.784Z,100038.39
2022-10-13T14:00:02.162Z,100036.75
2022-10-13T14:03:05.113Z,100033.97
2022-10-13T14:06:08.412Z,100031.75
2022-10-13T14:09:11.296Z,100031.00
2022-10-13T14:12:14.324Z,100029.11
2022-10-13T14:15:17.496Z,100026.86
2022-10-13T14:18:21.994Z,100025.51
2022-10-13T14:21:25.673Z,100028.67
2022-10-13T14:24:28.892Z,100025.50
2022-10-13T14:27:34.080Z,100024.02
2022-10-13T14:30:40.159Z,100021.59
2022-10-13T14:33:43.217Z,100020.26
2022-10-13T14:36:46.128Z,100018.36
2022-10-13T14:39:50.176Z,100015.61
2022-10-13T14:42:53.803Z,100015.67
2022-10-13T14:46:01.903Z,100015.65
2022-10-13T14:49:04.802Z,100013.23
2022-10-13T14:52:08.905Z,100013.42
2022-10-13T14:55:11.878Z,100011.70
2022-10-13T14:58:14.762Z,100005.80
2022-10-13T15:01:18.561Z,100003.52
2022-10-13T15:04:21.314Z,99999.83
2022-10-13T15:07:24.223Z,99997.91
2022-10-13T15:10:27.108Z,99997.38
2022-10-13T15:13:30.220Z,99996.79
2022-10-13T15:16:34.124Z,99998.61
2022-10-13T15:19:39.572Z,99999.98
2022-10-13T15:22:42.448Z,100000.20
2022-10-13T15:26:00.170Z,100000.83
2022-10-13T15:29:04.709Z,100004.08
2022-10-13T15:32:18.544Z,99997.42
2022-10-13T15:35:21.693Z,99998.09
2022-10-13T15:38:25.830Z,99989.20
2022-10-13T15:41:29.419Z,99988.42
2022-10-13T15:44:51.051Z,99982.37
2022-10-13T15:47:57.758Z,99981.85
2022-10-13T15:51:01.553Z,99981.02
2022-10-13T15:54:05.160Z,99985.16
2022-10-13T15:57:08.946Z,99986.27
2022-10-13T16:00:14.120Z,99986.52
2022-10-13T16:03:18.112Z,99985.25
2022-10-13T16:06:22.636Z,99982.10
2022-10-13T16:09:25.938Z,99980.09
2022-10-13T16:12:28.922Z,99981.34
2022-10-13T16:15:31.976Z,99980.95
2022-10-13T16:18:37.478Z,99978.40
2022-10-13T16:21:40.290Z,99984.02
2022-10-13T16:24:43.052Z,99981.11
2022-10-13T16:27:46.150Z,99979.02
2022-10-13T16:30:48.990Z,99975.57
2022-10-13T16:33:51.834Z,99974.98
2022-10-13T16:36:54.595Z,99977.35
2022-10-13T16:39:57.919Z,99975.20
2022-10-13T16:43:00.748Z,99973.30
2022-10-13T16:46:05.503Z,99971.14
2022-10-13T16:49:08.686Z,99971.59
2022-10-13T16:52:11.590Z,99970.17
2022-10-13T16:55:18.158Z,99975.52
2022-10-13T16:58:20.991Z,99975.84
2022-10-13T17:01:24.759Z,99973.56
2022-10-13T17:04:27.575Z,99973.85
2022-10-13T17:07:30.335Z,99975.99
2022-10-13T17:10:34.959Z,99973.52
2022-10-13T17:13:37.761Z,99974.05
2022-10-13T17:16:40.635Z,99971.46
2022-10-13T17:19:45.169Z,99974.71
2022-10-13T17:22:48.593Z,99977.82
2022-10-13T17:25:51.978Z,99976.84
2022-10-13T17:28:54.784Z,99976.23
2022-10-13T17:31:57.796Z,99977.52
2022-10-13T17:35:00.771Z,99978.14
2022-10-13T17:38:03.681Z,99975.62
2022-10-13T17:41:08.003Z,99974.89
2022-10-13T17:44:11.800Z,99976.60
2022-10-13T17:47:14.542Z,99977.91
2022-10-13T17:50:18.181Z,99976.95
2022-10-13T17:53:21.101Z,99973.34
2022-10-13T17:56:25.036Z,99972.81
2022-10-13T17:59:27.906Z,99972.70
2022-10-13T18:02:30.765Z,99968.15
2022-10-13T18:05:34.955Z,99966.34
2022-10-13T18:08:37.765Z,99961.19
2022-10-13T18:11:47.072Z,99960.54
2022-10-13T18:14:53.167Z,99959.95
2022-10-13T18:17:56.644Z,99957.99
2022-10-13T18:21:05.361Z,99955.43
2022-10-13T18:24:10.151Z,99960.48
2022-10-13T18:27:13.065Z,99958.86
2022-10-13T18:30:21.407Z,99961.02
2022-10-13T18:33:25.336Z,99955.10
2022-10-13T18:36:36.135Z,99954.73
2022-10-13T18:39:42.203Z,99957.96
2022-10-13T18:42:49.634Z,99961.00
2022-10-13T18:46:00.227Z,99966.52
2022-10-13T18:49:05.604Z,99963.41
2022-10-13T18:52:08.823Z,99961.17
2022-10-13T18:55:11.807Z,99962.20
2022-10-13T18:58:15.115Z,99959.26
2022-10-13T19:01:21.282Z,99959.86
2022-10-13T19:04:26.299Z,99960.73
2022-10-13T19:07:29.097Z,99955.77
2022-10-13T19:10:31.976Z,99948.83
2022-10-13T19:13:34.838Z,99951.35
2022-10-13T19:16:41.219Z,99947.03
2022-10-13T19:19:44.205Z,99952.19
2022-10-13T19:22:47.366Z,99948.11
2022-10-13T19:25:50.572Z,99947.20
2022-10-13T19:28:55.243Z,99951.04
2022-10-13T19:31:58.034Z,99951.50
2022-10-13T19:35:01.357Z,99950.84
2022-10-13T19:38:04.239Z,99950.40
2022-10-13T19:41:07.483Z,99951.40
2022-10-13T19:44:10.744Z,99944.61
2022-10-13T19:47:13.720Z,99947.44
2022-10-13T19:50:16.776Z,99942.05
2022-10-13T19:53:20.421Z,99941.14
2022-10-13T19:56:28.041Z,99942.00
2022-10-13T19:59:30.910Z,99938.45
2022-10-13T20:02:33.751Z,99937.05
2022-10-13T20:05:41.394Z,99939.46
2022-10-13T20:08:45.682Z,99943.10
2022-10-13T20:11:50.378Z,99943.45
2022-10-13T20:14:53.280Z,99940.26
2022-10-13T20:17:56.043Z,99938.28
2022-10-13T20:21:02.819Z,99943.29
2022-10-13T20:24:07.316Z,99942.85
2022-10-13T20:27:10.782Z,99941.83
2022-10-13T20:30:14.083Z,99938.14
2022-10-13T20:33:17.029Z,99940.40
2022-10-13T20:36:19.870Z,99937.55
2022-10-13T20:39:22.705Z,99936.05
2022-10-13T20:42:25.539Z,99934.70
2022-10-13T20:45:28.366Z,99931.45
2022-10-13T20:48:51.127Z,99932.22
2022-10-13T20:51:55.638Z,99932.43
2022-10-13T20:54:58.599Z,99927.83
2022-10-13T20:58:01.403Z,99926.24
2022-10-13T21:01:04.543Z,99931.91
2022-10-13T21:04:07.463Z,99929.41
2022-10-13T21:07:10.296Z,99930.45
2022-10-13T21:10:13.228Z,99925.98
2022-10-13T21:13:17.011Z,99926.45
2022-10-13T21:16:29.235Z,99922.08
2022-10-13T21:19:32.329Z,99922.23
2022-10-13T21:22:35.292Z,99922.95
2022-10-13T21:25:39.248Z,99920.77
2022-10-13T21:28:42.231Z,99927.73
2022-10-13T21:31:45.056Z,99920.59
2022-10-13T21:34:48.613Z,99918.23
2022-10-13T21:37:51.514Z,99920.04
2022-10-13T21:40:54.328Z,99921.93
2022-10-13T21:43:57.933Z,99917.84
2022-10-13T21:47:00.839Z,99915.19
2022-10-13T21:50:05.120Z,99916.11
2022-10-13T21:53:08.826Z,99920.08
2022-10-13T21:56:12.066Z,99917.87
2022-10-13T21:59:15.103Z,99922.63
2022-10-13T22:05:38.398Z,99918.31
2022-10-13T22:08:43.994Z,99918.73
2022-10-13T22:11:46.735Z,99921.64
2022-10-13T22:14:49.550Z,99920.31
2022-10-13T22:17:52.519Z,99918.91
2022-10-13T22:20:55.278Z,99916.53
2022-10-13T22:24:00.582Z,99919.27
2022-10-13T22:27:03.494Z,99912.33
2022-10-13T22:30:06.955Z,99911.34
2022-10-13T22:33:09.705Z,99909.23
2022-10-13T22:36:18.659Z,99909.95
2022-10-13T22:39:21.662Z,99916.45
2022-10-13T22:42:25.166Z,99915.45
2022-10-13T22:45:28.138Z,99915.14
2022-10-13T22:48:31.124Z,99913.27
2022-10-13T22:51:36.747Z,99915.77
2022-10-13T22:54:39.568Z,99913.98
2022-10-13T22:57:42.353Z,99916.49
2022-10-13T23:00:45.088Z,99913.20
2022-10-13T23:03:49.575Z,99915.08
2022-10-13T23:06:52.396Z,99912.26
2022-10-13T23:09:55.458Z,99908.73
2022-10-13T23:12:58.316Z,99910.08
2022-10-13T23:16:08.983Z,99908.98
2022-10-13T23:19:12.071Z,99906.77
2022-10-13T23:22:15.655Z,99908.96
2022-10-13T23:25:18.569Z,99907.98
2022-10-13T23:28:21.565Z,99907.29
2022-10-13T23:31:25.438Z,99905.12
2022-10-13T23:34:29.339Z,99901.77
2022-10-13T23:37:32.513Z,99899.65
2022-10-13T23:40:35.481Z,99897.10
2022-10-13T23:43:38.425Z,99892.00
2022-10-13T23:46:41.222Z,99886.46
2022-10-13T23:49:44.101Z,99881.54
2022-10-13T23:52:46.879Z,99881.70
2022-10-13T23:55:49.937Z,99878.94
2022-10-13T23:58:52.832Z,99878.72
